Flight Track Log - Related Links

Times and Time Zones

All times are in EDT time to prevent confusion due to time zone crossing. See the UAL6057 flight status page for this flight to view local times or setup timezone preferences in your user account.

Time Position Orientation Groundspeed Altitude Reporting Facility
EDT Latitude Longitude Course Direction KTS MPH feet Rate Location/Type
Tue 08:49:00 PM 43.6033 -96.7356 76° East 152 175 2,800  Level Minneapolis Center
Tue 08:50:14 PM 43.6208 -96.6353 76° East 219 252 6,200 3,197 Climbing Minneapolis Center
Tue 08:51:17 PM 43.6092 -96.5083 97° East 257 296 10,100 2,448 Climbing Minneapolis Center
Tue 08:52:19 PM 43.5928 -96.3944 101° East 282 325 11,300 1,355 Climbing Minneapolis Center
Tue 08:53:21 PM 43.5722 -96.2553 101° East 329 379 12,900 1,694 Climbing Minneapolis Center
Tue 08:54:23 PM 43.5506 -96.1108 102° East 377 434 14,800 1,707 Climbing Minneapolis Center
Tue 08:55:24 PM 43.5275 -95.9653 102° East 389 448 16,400 1,452 Climbing Minneapolis Center
Tue 08:56:27 PM 43.5008 -95.7825 101° East 407 468 17,800 1,200 Climbing Minneapolis Center
Tue 08:57:29 PM 43.4764 -95.6281 102° East 415 478 18,900 1,113 Climbing Minneapolis Center
Tue 08:58:31 PM 43.4514 -95.4658 102° East 429 494 20,100 1,412 Climbing Minneapolis Center
Tue 08:59:45 PM 43.4258 -95.3025 102° East 436 502 22,100 2,559 Climbing Minneapolis Center
Tue 09:00:47 PM 43.3908 -95.0861 102° East 421 484 25,900 2,903 Climbing Minneapolis Center
Tue 09:01:49 PM 43.3667 -94.9381 103° East 404 465 28,100 1,887 Climbing Minneapolis Center
Tue 09:02:51 PM 43.3419 -94.7869 103° East 404 465 29,800 1,694 Climbing Minneapolis Center
Tue 09:03:53 PM 43.3183 -94.6364 102° East 406 467 31,600 1,452 Climbing Minneapolis Center
Tue 09:04:55 PM 43.2981 -94.5142 103° East 409 471 32,800 672 Climbing Minneapolis Center
Tue 09:05:58 PM 43.2592 -94.2881 103° East 432 497 33,000 88 Climbing Minneapolis Center
Tue 09:07:12 PM 43.2286 -94.1050 103° East 484 557 33,000  Level Minneapolis Center
Tue 09:08:14 PM 43.1906 -93.8767 103° East 511 588 33,000  Level Minneapolis Center
Tue 09:09:16 PM 43.1558 -93.6850 104° East 519 597 33,000  Level Minneapolis Center
Tue 09:10:18 PM 43.1233 -93.4914 103° East 523 602 33,000  Level Minneapolis Center
Tue 09:11:20 PM 43.0928 -93.3003 102° East 521 600 33,000  Level Minneapolis Center
Tue 09:12:22 PM 43.0761 -93.0575 95° East 535 616 33,000  Level Minneapolis Center
Tue 09:13:24 PM 43.0622 -92.8544 95° East 539 620 33,000  Level Minneapolis Center
Tue 09:14:26 PM 43.0481 -92.6525 95° East 540 621 33,000 -532 Level Minneapolis Center
Tue 09:15:28 PM 43.0344 -92.4500 95° East 538 619 31,900 -968 Descending Minneapolis Center
Tue 09:16:30 PM 43.0186 -92.2489 96° East 537 618 31,000 -435 Descending Minneapolis Center
Tue 09:17:32 PM 43.0014 -92.0008 95° East 546 628 31,000  Level Minneapolis Center
Tue 09:18:34 PM 42.9850 -91.7933 96° East 547 629 31,000  Level Minneapolis Center
Tue 09:19:36 PM 42.9683 -91.5844 96° East 547 629 31,000  Level Minneapolis Center
Tue 09:20:38 PM 42.9517 -91.3772 96° East 544 626 31,000  Level Minneapolis Center
Tue 09:21:52 PM 42.9344 -91.1733 97° East 540 621 31,000  Level Minneapolis Center
Tue 09:22:54 PM 42.9139 -90.9306 97° East 539 620 31,000 -583 Level Minneapolis Center
Tue 09:23:35 PM 42.9011 -90.7703 96° East 539 620 30,000 -1,689 Descending Chicago Center
Tue 09:24:37 PM 42.8831 -90.5742 97° East 528 608 28,100 -1,887 Descending Chicago Center
Tue 09:25:39 PM 42.8664 -90.3811 97° East 518 596 26,100 -1,645 Descending Chicago Center
Tue 09:26:41 PM 42.8486 -90.1892 97° East 514 592 24,700 -1,016 Descending Chicago Center
Tue 09:27:43 PM 42.8164 -90.0103 104° East 494 568 24,000 -339 Descending Chicago Center
Tue 09:28:45 PM 42.7628 -89.8169 111° Southeast 493 567 24,000 -242 Level Chicago Center
Tue 09:29:47 PM 42.7122 -89.6436 112° Southeast 493 567 23,500 -1,161 Descending Chicago Center
Tue 09:30:49 PM 42.6575 -89.4464 111° Southeast 483 556 21,600 -1,597 Descending Chicago Center
Tue 09:31:51 PM 42.6097 -89.2853 112° Southeast 466 536 20,200 -1,403 Descending Chicago Center
Tue 09:32:53 PM 42.5647 -89.1272 111° Southeast 453 521 18,700 -1,317 Descending Chicago Center
Tue 09:33:54 PM 42.5183 -88.9731 112° Southeast 445 512 17,500 -774 Descending Chicago Center
Tue 09:34:57 PM 42.4728 -88.8239 112° Southeast 432 497 17,100 -1,694 Descending Chicago Center
Tue 09:35:58 PM 42.4292 -88.6800 112° Southeast 418 481 14,000 -3,220 Descending Chicago Center
Tue 09:37:00 PM 42.3800 -88.5172 112° Southeast 401 461 10,500 -2,032 Descending Chicago Center
Tue 09:38:02 PM 42.3461 -88.4003 111° Southeast 346 398 9,800 -1,220 Descending Chicago Center
Tue 09:39:03 PM 42.2981 -88.3192 129° Southeast 296 341 8,000 -1,366 Descending Chicago Center
Tue 09:40:05 PM 42.2531 -88.2411 128° Southeast 269 310 7,000 -484 Descending Chicago Center
Tue 09:41:07 PM 42.2169 -88.1850 131° Southeast 213 245 7,000  Level Chicago Center
Tue 09:42:09 PM 42.1772 -88.1253 132° Southeast 212 244 7,000  Level Chicago Center
Tue 09:43:10 PM 42.1267 -88.0689 140° Southeast 201 231 7,000  Level Chicago Center
Tue 09:44:10 PM 42.1000 -88.0167 125° Southeast 215 247 7,000  Level Chicago TRACON
Tue 09:45:16 PM 42.1000 -87.9167 90° East 220 253 7,000  Level Chicago TRACON
Tue 09:46:16 PM 42.1000 -87.8333 90° East 225 259 7,000  Level Chicago TRACON
Tue 09:47:10 PM 42.0833 -87.7667 109° East 218 251 7,000 -421 Level Chicago TRACON
Tue 09:48:10 PM 42.0833 -87.6833 90° East 209 241 6,200 -1,000 Descending Chicago TRACON
Tue 09:49:10 PM 42.0833 -87.6000 90° East 204 235 5,000 -1,050 Descending Chicago TRACON
Tue 09:50:10 PM 42.0833 -87.5333 90° East 205 236 4,100 -500 Descending Chicago TRACON
Tue 09:51:10 PM 42.0833 -87.4500 90° East 198 228 4,000 -50 Descending Chicago TRACON
Tue 09:52:10 PM 42.0667 -87.4000 114° Southeast 220 253 4,000  Level Chicago TRACON
Tue 09:53:11 PM 42.0167 -87.3833 166° South 206 237 4,000  Level Chicago TRACON
Tue 09:54:11 PM 41.9833 -87.4167 217° Southwest 192 221 4,000  Level Chicago TRACON
Tue 09:55:11 PM 41.9833 -87.4667 270° West 165 190 4,000  Level Chicago TRACON
Tue 09:56:11 PM 41.9833 -87.5333 270° West 173 199 4,000  Level Chicago TRACON
Tue 09:57:11 PM 41.9833 -87.6000 270° West 169 194 4,000  Level Chicago TRACON
Tue 09:58:05 PM 41.9833 -87.6500 270° West 175 201 4,000 -368 Level Chicago TRACON
Tue 09:59:05 PM 41.9833 -87.7167 270° West 168 193 3,300 -850 Descending Chicago TRACON
Tue 10:00:05 PM 41.9833 -87.7833 270° West 182 209 2,300 -950 Descending Chicago TRACON
Tue 10:01:05 PM 41.9833 -87.8333 270° West 140 161 1,400 -900 Descending Chicago TRACON

Login

Don't have an account? Register now (free) for customized features, flight alerts, and more!